< < Back
Terminal Aerodrome Forecast


Current Version              Previous Versions:   1  2  3  4  5  6  7  8  9  

Terminal Aerodrome Forecast

380
FTUS42 KILM 060000 CCA
TAFILM
TAF COR
KILM 060025Z 0600/0624 02014KT 6SM -RA SCT015 BKN020 OVC035
      TEMPO 0600/0602 2SM -RA BR BKN015
     FM060200 02014KT 3SM -RA SCT009 BKN015 OVC035
      TEMPO 0602/0606 2SM -RAPL BKN009 OVC012
     FM061000 02020G28KT P6SM VCSH SCT015 OVC050
     FM061800 02012KT P6SM SCT050 SCT250=

Latest METAR

288
SAUS70 KWBC 061400 RRA
MTRILM
METAR KILM 061353Z 02013G21KT 10SM OVC048 01/M06 A3045 RMK AO2 SLP311
T00061061


USA.gov is the U.S. government's official web portal to all federal, state and local government web resources and services.